Time;durP1;ratioP1;P1;durP2;ratioP2;P2;SDS_P1;SDS_P2;PMS_P1;PMS_P2;Temp;Humidity;BMP_temperature;BMP_pressure;BME280_temperature;BME280_humidity;BME280_pressure;Samples;Min_cycle;Max_cycle;Signal;HPM_P1;HPM_P2
2019/10/09 18:20:38;;;;;;;3.3;1.2;;;;;;;9.91;92.21875;957.6456;;;;
2019/10/09 18:23:03;;;;;;;3;0.9;;;;;;;9.89;92.7207;957.6606;;;;
2019/10/09 18:25:28;;;;;;;2.7;0.9;;;;;;;9.85;91.51855;957.7275;;;;
2019/10/09 18:27:53;;;;;;;2.4;0.8;;;;;;;10.04;93.0752;957.7472;;;;
2019/10/09 18:30:18;;;;;;;2;0.9;;;;;;;9.97;91.70215;957.8616;;;;
2019/10/09 18:32:43;;;;;;;1.2;0.8;;;;;;;9.91;91.49512;957.8987;;;;
2019/10/09 18:35:08;;;;;;;1.9;0.8;;;;;;;9.85;92.4375;957.817;;;;
2019/10/09 18:37:33;;;;;;;1.7;0.8;;;;;;;9.87;91.90137;957.9355;;;;
2019/10/09 18:39:58;;;;;;;2.6;0.9;;;;;;;9.89;91.94141;957.9008;;;;
2019/10/09 18:42:23;;;;;;;2;0.9;;;;;;;9.85;91.40137;957.9236;;;;
2019/10/09 18:44:49;;;;;;;2.2;1.1;;;;;;;9.85;93.23047;957.9074;;;;
2019/10/09 18:47:14;;;;;;;2.3;1.1;;;;;;;9.79;92.59863;957.9128;;;;
2019/10/09 18:49:39;;;;;;;2.4;1.2;;;;;;;9.79;91.83984;957.9356;;;;
2019/10/09 18:52:04;;;;;;;2.7;0.9;;;;;;;9.81;92.40527;957.9352;;;;
2019/10/09 18:54:29;;;;;;;2.4;0.9;;;;;;;9.75;92.73828;957.9414;;;;
2019/10/09 18:56:54;;;;;;;1.5;1;;;;;;;9.79;92.82422;957.9641;;;;
2019/10/09 18:59:19;;;;;;;2.8;1;;;;;;;9.79;92.9873;957.9763;;;;
2019/10/09 19:01:44;;;;;;;2.5;0.9;;;;;;;9.81;93.2666;957.956;;;;
2019/10/09 19:04:09;;;;;;;1.3;1;;;;;;;9.8;94.11523;957.9698;;;;
2019/10/09 19:06:34;;;;;;;2.7;1.1;;;;;;;9.73;92.64063;957.9409;;;;
2019/10/09 19:09:00;;;;;;;1.8;1;;;;;;;9.77;93.6377;958.0212;;;;
2019/10/09 19:11:25;;;;;;;2.4;1.1;;;;;;;9.7;92.58887;957.9565;;;;
2019/10/09 19:13:50;;;;;;;2.9;1.1;;;;;;;9.77;93.0293;957.9839;;;;
2019/10/09 19:16:15;;;;;;;2.2;1.1;;;;;;;9.64;92.56543;958.0278;;;;
2019/10/09 19:18:41;;;;;;;4.5;1.2;;;;;;;9.76;93.32422;958.0212;;;;
2019/10/09 19:21:10;;;;;;;2.5;1.1;;;;;;;9.78;92.7666;957.9957;;;;
2019/10/09 19:23:58;;;;;;;2.3;1;;;;;;;9.79;94.65039;958.0275;;;;
2019/10/09 19:26:21;;;;;;;4.1;1.7;;;;;;;9.83;94.06543;958.0909;;;;
2019/10/09 19:28:47;;;;;;;2.8;1.1;;;;;;;9.88;92.98535;958.1351;;;;
2019/10/09 19:31:11;;;;;;;2.7;1.2;;;;;;;9.9;91.99902;958.2198;;;;
2019/10/09 19:33:36;;;;;;;3.1;1;;;;;;;10.01;91.73438;958.1569;;;;
2019/10/09 19:36:02;;;;;;;2.3;1.1;;;;;;;10.06;90.68848;958.1473;;;;
2019/10/09 19:38:27;;;;;;;2;1;;;;;;;10.1;91.82422;958.2131;;;;
2019/10/09 19:40:52;;;;;;;3;1.1;;;;;;;10.06;92.03516;958.1841;;;;
2019/10/09 19:43:17;;;;;;;3.5;1.3;;;;;;;10.09;91.9834;958.1708;;;;
2019/10/09 19:45:42;;;;;;;3.5;1.1;;;;;;;10.15;91.99512;958.3778;;;;
2019/10/09 19:48:07;;;;;;;2.9;1.4;;;;;;;10.23;91.01172;958.3621;;;;
2019/10/09 19:50:32;;;;;;;3.1;1.4;;;;;;;10.2;91.7627;958.368;;;;
2019/10/09 19:52:57;;;;;;;2.9;1.1;;;;;;;10.24;91.74902;958.425;;;;
2019/10/09 19:55:22;;;;;;;2.6;1.1;;;;;;;10.15;92.67285;958.3053;;;;
2019/10/09 19:57:48;;;;;;;1.8;0.9;;;;;;;10.13;94.18945;958.2422;;;;
2019/10/09 20:00:13;;;;;;;2;0.9;;;;;;;10.09;95.3291;958.2302;;;;
2019/10/09 20:02:38;;;;;;;2.2;1.1;;;;;;;10.08;95.34961;958.2374;;;;
2019/10/09 20:05:03;;;;;;;1.6;0.8;;;;;;;10.03;95.38379;958.181;;;;
2019/10/09 20:07:28;;;;;;;1.7;0.9;;;;;;;10.03;95.31543;958.0898;;;;
2019/10/09 20:09:54;;;;;;;2.5;0.9;;;;;;;9.97;95.49609;958.1563;;;;
2019/10/09 20:12:19;;;;;;;2.8;1;;;;;;;9.97;96.29004;958.149;;;;
2019/10/09 20:14:44;;;;;;;2.7;1;;;;;;;9.91;96.1377;958.1226;;;;
2019/10/09 20:17:10;;;;;;;2.4;1;;;;;;;9.91;97.00195;958.1959;;;;
2019/10/09 20:19:35;;;;;;;2.6;0.9;;;;;;;10.01;96.71289;958.0796;;;;
2019/10/09 20:22:00;;;;;;;1.9;0.9;;;;;;;9.99;96.94824;958.0347;;;;
2019/10/09 20:24:25;;;;;;;2.2;1.1;;;;;;;9.97;97.08301;958.0545;;;;
2019/10/09 20:26:50;;;;;;;2.5;1.1;;;;;;;9.97;97.62305;958.0969;;;;
2019/10/09 20:29:15;;;;;;;1.8;0.9;;;;;;;10.04;97.3291;958.1005;;;;
2019/10/09 20:31:40;;;;;;;2.9;1;;;;;;;10.05;97.53711;958.0697;;;;
2019/10/09 20:34:06;;;;;;;3.6;1.1;;;;;;;10;96.37793;958.0852;;;;
2019/10/09 20:36:31;;;;;;;3.3;1.1;;;;;;;10;96.40137;958.0291;;;;
2019/10/09 20:38:56;;;;;;;2.3;1;;;;;;;9.97;97.00195;958.1555;;;;
2019/10/09 20:41:22;;;;;;;2.3;1.3;;;;;;;10.01;96.61035;958.087;;;;
2019/10/09 20:43:47;;;;;;;2.9;1.2;;;;;;;9.98;97.79688;958.11;;;;
2019/10/09 20:46:12;;;;;;;2.4;1.2;;;;;;;9.91;96.48438;958.1861;;;;
2019/10/09 20:48:38;;;;;;;3.2;1.1;;;;;;;9.9;96.29688;958.1303;;;;
2019/10/09 20:52:55;;;;;;;2;1.1;;;;;;;9.93;96.5918;958.1268;;;;
2019/10/09 20:55:20;;;;;;;2.1;1;;;;;;;9.93;96.98242;958.1195;;;;
2019/10/09 20:57:46;;;;;;;2.6;1.3;;;;;;;9.92;96.79688;958.1495;;;;
2019/10/09 21:00:11;;;;;;;3.9;1.1;;;;;;;9.92;96.65918;958.2155;;;;
2019/10/09 21:02:36;;;;;;;2.1;1.1;;;;;;;9.89;96.24902;958.1897;;;;
2019/10/09 21:05:01;;;;;;;3.1;1;;;;;;;9.88;97.05078;958.1667;;;;
2019/10/09 21:07:26;;;;;;;2.2;1.1;;;;;;;9.89;97.66211;958.1506;;;;
2019/10/09 21:09:51;;;;;;;3;0.9;;;;;;;9.91;97.50488;958.1633;;;;
2019/10/09 21:12:16;;;;;;;3.9;1.1;;;;;;;9.86;97.26563;958.128;;;;
2019/10/09 21:14:41;;;;;;;3.1;1.1;;;;;;;9.85;97.36426;958.145;;;;
2019/10/09 21:17:06;;;;;;;2.9;1.2;;;;;;;9.87;96.86523;958.1692;;;;
2019/10/09 21:19:31;;;;;;;2.9;1.2;;;;;;;9.9;96.92871;958.1629;;;;
2019/10/09 21:21:56;;;;;;;2.5;1;;;;;;;9.97;97.01367;958.245;;;;
2019/10/09 21:24:21;;;;;;;2.7;1.1;;;;;;;10.01;97.36816;958.24;;;;
2019/10/09 21:26:46;;;;;;;2.5;1.1;;;;;;;9.98;96.61328;958.2972;;;;
2019/10/09 21:29:12;;;;;;;2.4;1.1;;;;;;;9.98;96.61523;958.3502;;;;
2019/10/09 21:31:37;;;;;;;2.6;1.1;;;;;;;10;96.14648;958.3433;;;;
2019/10/09 21:34:02;;;;;;;2.9;1;;;;;;;10.02;96.92188;958.2982;;;;
2019/10/09 21:36:27;;;;;;;2.3;1.2;;;;;;;10.05;96.18359;958.2645;;;;
2019/10/09 21:38:52;;;;;;;3.8;1.2;;;;;;;10.1;95.7793;958.3467;;;;
2019/10/09 21:41:17;;;;;;;2.6;1.1;;;;;;;10.15;95.60742;958.2687;;;;
2019/10/09 21:43:42;;;;;;;4;1.2;;;;;;;10.16;95.57227;958.2525;;;;
2019/10/09 21:46:07;;;;;;;4.1;1.1;;;;;;;10.23;96.35742;958.226;;;;
2019/10/09 21:48:32;;;;;;;2.8;1.2;;;;;;;10.24;95.88965;958.2557;;;;
2019/10/09 21:50:57;;;;;;;3.2;1.2;;;;;;;10.24;94.72949;958.1857;;;;
2019/10/09 21:53:23;;;;;;;5.7;1.4;;;;;;;10.31;94.45605;958.1619;;;;
2019/10/09 21:55:48;;;;;;;3.1;1.3;;;;;;;10.33;94.4375;958.252;;;;
2019/10/09 21:58:13;;;;;;;3.4;1.2;;;;;;;10.3;95.19043;958.2742;;;;
2019/10/09 22:00:38;;;;;;;5.4;1.6;;;;;;;10.29;94.95801;958.1845;;;;
2019/10/09 22:03:03;;;;;;;4;1.1;;;;;;;10.34;94.94531;958.1884;;;;
2019/10/09 22:05:28;;;;;;;4.3;1.4;;;;;;;10.32;95.03516;958.2658;;;;
2019/10/09 22:07:53;;;;;;;3.3;1.3;;;;;;;10.32;95.05859;958.2453;;;;
2019/10/09 22:10:21;;;;;;;3.9;1.3;;;;;;;10.32;94.37988;958.2324;;;;
2019/10/09 22:13:05;;;;;;;3.4;1.1;;;;;;;10.33;95.04883;958.2251;;;;
2019/10/09 22:15:09;;;;;;;3.1;1.1;;;;;;;10.4;94.47559;958.2718;;;;
2019/10/09 22:17:34;;;;;;;3.3;1.2;;;;;;;10.35;94.14355;958.285;;;;
2019/10/09 22:19:59;;;;;;;2.9;1.3;;;;;;;10.37;94.20508;958.2679;;;;
2019/10/09 22:22:24;;;;;;;3.5;1.2;;;;;;;10.32;94;958.2926;;;;
2019/10/09 22:24:50;;;;;;;2.8;1.1;;;;;;;10.34;94.4502;958.3033;;;;
2019/10/09 22:27:15;;;;;;;2.3;1.2;;;;;;;10.34;94.04785;958.3082;;;;
2019/10/09 22:29:40;;;;;;;2.5;1.1;;;;;;;10.39;93.76074;958.2921;;;;
2019/10/09 22:32:05;;;;;;;2.1;0.9;;;;;;;10.41;93.77539;958.2722;;;;
2019/10/09 22:34:30;;;;;;;3.1;1.1;;;;;;;10.38;93.64355;958.2814;;;;
2019/10/09 22:36:55;;;;;;;3.2;1.1;;;;;;;10.37;94.11523;958.2078;;;;
2019/10/09 22:39:20;;;;;;;2.3;1;;;;;;;10.4;94.13281;958.2523;;;;
2019/10/09 22:41:45;;;;;;;3.8;1.2;;;;;;;10.35;94.39648;958.2915;;;;
2019/10/09 22:44:11;;;;;;;3.6;1.3;;;;;;;10.35;94.73047;958.2548;;;;
2019/10/09 22:46:36;;;;;;;3.9;1.3;;;;;;;10.31;94.70898;958.2458;;;;
2019/10/09 22:49:01;;;;;;;2.1;1.2;;;;;;;10.29;94.74023;958.1769;;;;
2019/10/09 22:51:26;;;;;;;2.9;1.3;;;;;;;10.25;95.7998;958.2142;;;;
2019/10/09 22:53:51;;;;;;;3.2;1;;;;;;;10.31;95.20215;958.1847;;;;
2019/10/09 22:56:17;;;;;;;2.6;1.4;;;;;;;10.27;95;958.3144;;;;
2019/10/09 22:58:42;;;;;;;4.1;1.7;;;;;;;10.23;95.65918;958.2321;;;;
2019/10/09 23:01:08;;;;;;;2.5;1.1;;;;;;;10.26;94.82422;958.111;;;;
2019/10/09 23:03:33;;;;;;;3.3;1.1;;;;;;;10.23;94.87598;958.1042;;;;
2019/10/09 23:05:58;;;;;;;1.9;0.8;;;;;;;10.29;95.01563;958.1557;;;;
2019/10/09 23:08:23;;;;;;;2.5;1.3;;;;;;;10.29;94.21094;958.071;;;;
2019/10/09 23:10:49;;;;;;;2.4;0.9;;;;;;;10.26;93.56055;958.0782;;;;
2019/10/09 23:13:14;;;;;;;1.9;0.8;;;;;;;10.25;94.60352;958.0994;;;;
2019/10/09 23:15:40;;;;;;;1.9;1;;;;;;;10.18;92.49707;958.0764;;;;
2019/10/09 23:18:05;;;;;;;2.4;1.2;;;;;;;10.18;93.02539;958.0242;;;;
2019/10/09 23:20:30;;;;;;;2.7;1.2;;;;;;;10.14;92.19043;958.0415;;;;
2019/10/09 23:22:56;;;;;;;1.8;0.7;;;;;;;10.12;92.50684;958.0207;;;;
2019/10/09 23:25:21;;;;;;;2.2;1.1;;;;;;;10.11;92.7002;958.0675;;;;
2019/10/09 23:27:46;;;;;;;3.1;0.8;;;;;;;10.16;92.45703;958.1027;;;;
2019/10/09 23:30:12;;;;;;;2.3;0.9;;;;;;;10.12;92.71387;958.1208;;;;
2019/10/09 23:32:37;;;;;;;1.6;0.7;;;;;;;10.08;93.0625;958.2505;;;;
2019/10/09 23:35:03;;;;;;;1.6;0.7;;;;;;;10.04;92.8916;958.16;;;;
2019/10/09 23:37:28;;;;;;;2.3;0.6;;;;;;;10.18;92.77051;958.2261;;;;
2019/10/09 23:39:53;;;;;;;1.6;0.7;;;;;;;10.08;93.00293;958.2233;;;;
2019/10/09 23:42:19;;;;;;;2.1;0.7;;;;;;;10.07;93.50684;958.3306;;;;
2019/10/09 23:44:44;;;;;;;2.7;1.2;;;;;;;10.06;93.64453;958.2883;;;;
2019/10/09 23:47:10;;;;;;;2.2;1.1;;;;;;;10.13;93.49707;958.2422;;;;
2019/10/09 23:49:35;;;;;;;1.4;0.7;;;;;;;10.09;93.73047;958.2049;;;;
2019/10/09 23:52:00;;;;;;;1.7;0.9;;;;;;;10.13;94.3252;958.2503;;;;
2019/10/09 23:54:25;;;;;;;2.3;0.8;;;;;;;10.1;93.70996;958.2775;;;;
2019/10/09 23:56:50;;;;;;;1.3;0.7;;;;;;;10.13;93.91113;958.3285;;;;
2019/10/09 23:59:16;;;;;;;1.7;0.8;;;;;;;10.12;94.15039;958.3463;;;;
